createdAt,value
2023-03-26T00:01:39.479Z,100.00
2023-03-26T00:04:07.530Z,100.00
2023-03-26T00:06:39.964Z,100.00
2023-03-26T00:09:13.296Z,100.00
2023-03-26T00:11:41.720Z,100.00
2023-03-26T00:14:13.599Z,100.00
2023-03-26T00:16:44.591Z,100.00
2023-03-26T00:19:12.709Z,100.00
2023-03-26T00:21:39.983Z,100.00
2023-03-26T00:24:15.015Z,100.00
2023-03-26T00:26:43.747Z,100.00
2023-03-26T00:29:13.638Z,100.00
2023-03-26T00:31:41.130Z,100.00
2023-03-26T00:34:10.401Z,100.00
2023-03-26T00:36:37.366Z,100.00
2023-03-26T00:39:06.337Z,100.00
2023-03-26T00:41:37.317Z,100.00
2023-03-26T00:44:04.568Z,100.00
2023-03-26T00:46:32.607Z,100.00
2023-03-26T00:49:01.696Z,100.00
2023-03-26T00:51:29.623Z,100.00
2023-03-26T00:53:57.992Z,100.00
2023-03-26T00:56:26.329Z,100.00
2023-03-26T00:58:53.406Z,100.00
2023-03-26T01:01:28.069Z,100.00
2023-03-26T01:04:19.594Z,100.00
2023-03-26T01:06:46.955Z,100.00
2023-03-26T01:09:18.698Z,100.00
2023-03-26T01:11:47.611Z,100.00
2023-03-26T01:14:21.381Z,100.00
2023-03-26T01:16:52.671Z,100.00
2023-03-26T01:19:33.893Z,100.00
2023-03-26T01:22:01.819Z,100.00
2023-03-26T01:24:28.896Z,100.00
2023-03-26T01:27:12.077Z,99.70
2023-03-26T01:29:48.068Z,100.00
2023-03-26T01:32:46.384Z,100.00
2023-03-26T01:35:24.262Z,100.00
2023-03-26T01:38:11.043Z,100.00
2023-03-26T01:40:54.568Z,100.00
2023-03-26T01:43:32.380Z,100.00
2023-03-26T01:46:03.751Z,100.00
2023-03-26T01:48:37.046Z,100.00
2023-03-26T01:51:06.249Z,100.00
2023-03-26T01:53:37.976Z,100.00
2023-03-26T01:56:35.796Z,100.00
2023-03-26T01:59:29.054Z,100.00
2023-03-26T02:02:13.579Z,100.00
2023-03-26T02:04:55.750Z,100.00
2023-03-26T02:07:44.718Z,100.00
2023-03-26T02:10:26.615Z,100.00
2023-03-26T02:12:54.385Z,100.00
2023-03-26T02:15:22.129Z,100.00
2023-03-26T02:17:49.656Z,100.00
2023-03-26T02:20:18.896Z,100.00
2023-03-26T02:22:47.233Z,100.00
2023-03-26T02:25:19.177Z,100.00
2023-03-26T02:27:49.545Z,100.00
2023-03-26T02:30:27.401Z,100.00
2023-03-26T02:32:57.883Z,100.00
2023-03-26T02:35:25.143Z,100.00
2023-03-26T02:37:52.286Z,100.00
2023-03-26T02:40:21.218Z,100.00
2023-03-26T02:42:48.733Z,100.00
2023-03-26T02:45:16.433Z,100.00
2023-03-26T02:47:43.474Z,100.00
2023-03-26T02:50:11.858Z,100.00
2023-03-26T02:52:39.138Z,100.00
2023-03-26T02:55:06.181Z,100.00
2023-03-26T02:57:33.234Z,100.00
2023-03-26T03:00:00.115Z,100.00
2023-03-26T03:02:29.385Z,100.00
2023-03-26T03:05:01.468Z,100.00
2023-03-26T03:07:29.188Z,100.00
2023-03-26T03:09:56.503Z,100.00
2023-03-26T03:12:23.386Z,100.00
2023-03-26T03:14:50.486Z,100.00
2023-03-26T03:17:19.782Z,100.00
2023-03-26T03:19:46.945Z,100.00
2023-03-26T03:22:14.694Z,100.00
2023-03-26T03:24:43.693Z,100.00
2023-03-26T03:27:10.898Z,100.00
2023-03-26T03:29:37.734Z,100.00
2023-03-26T03:32:05.336Z,100.00
2023-03-26T03:34:32.647Z,100.00
2023-03-26T03:36:59.852Z,100.00
2023-03-26T03:39:27.140Z,100.00
2023-03-26T03:41:54.265Z,100.00
2023-03-26T03:44:21.457Z,100.00
2023-03-26T03:46:49.294Z,100.00
2023-03-26T03:49:16.082Z,100.00
2023-03-26T03:51:42.907Z,100.00
2023-03-26T03:54:09.975Z,100.00
2023-03-26T03:56:38.002Z,100.00
2023-03-26T03:59:05.474Z,100.00
2023-03-26T04:01:33.235Z,100.00
2023-03-26T04:04:00.493Z,100.00
2023-03-26T04:06:30.148Z,100.00
2023-03-26T04:08:57.577Z,100.00
2023-03-26T04:11:24.532Z,100.00
2023-03-26T04:13:52.098Z,100.00
2023-03-26T04:16:19.676Z,100.00
2023-03-26T04:18:46.973Z,100.00
2023-03-26T04:21:15.776Z,100.00
2023-03-26T04:23:43.838Z,100.00
2023-03-26T04:26:16.768Z,100.00
2023-03-26T04:28:50.457Z,100.00
2023-03-26T04:31:24.448Z,100.00
2023-03-26T04:33:56.364Z,100.00
2023-03-26T04:36:27.359Z,100.00
2023-03-26T04:38:55.546Z,100.00
2023-03-26T04:41:22.612Z,100.00
2023-03-26T04:43:50.666Z,100.00
2023-03-26T04:46:26.755Z,100.00
2023-03-26T04:48:54.690Z,100.00
2023-03-26T04:51:25.813Z,100.00
2023-03-26T04:53:59.251Z,100.00
2023-03-26T04:56:51.462Z,100.00
2023-03-26T04:59:30.041Z,100.00
2023-03-26T05:01:59.350Z,100.00
2023-03-26T05:04:29.414Z,100.00
2023-03-26T05:06:58.482Z,100.00
2023-03-26T05:09:27.303Z,100.00
2023-03-26T05:11:55.659Z,100.00
2023-03-26T05:14:22.979Z,100.00
2023-03-26T05:16:53.192Z,100.00
2023-03-26T05:19:22.392Z,100.00
2023-03-26T05:21:49.715Z,100.00
2023-03-26T05:24:17.066Z,100.00
2023-03-26T05:26:45.084Z,100.00
2023-03-26T05:29:17.969Z,100.00
2023-03-26T05:31:44.764Z,100.00
2023-03-26T05:34:12.079Z,100.00
2023-03-26T05:36:39.169Z,100.00
2023-03-26T05:39:06.158Z,100.00
2023-03-26T05:41:34.100Z,100.00
2023-03-26T05:44:01.261Z,100.00
2023-03-26T05:46:33.090Z,100.00
2023-03-26T05:49:02.773Z,100.00
2023-03-26T05:51:29.696Z,100.00
2023-03-26T05:53:56.405Z,100.00
2023-03-26T05:56:23.574Z,100.00
2023-03-26T05:58:52.077Z,100.00
2023-03-26T06:01:19.780Z,100.00
2023-03-26T06:03:48.574Z,100.00
2023-03-26T06:06:18.718Z,100.00
2023-03-26T06:09:01.013Z,100.00
2023-03-26T06:11:31.482Z,100.00
2023-03-26T06:13:59.170Z,100.00
2023-03-26T06:16:28.372Z,100.00
2023-03-26T06:18:57.621Z,100.00
2023-03-26T06:21:26.326Z,100.00
2023-03-26T06:23:53.967Z,100.00
2023-03-26T06:26:21.821Z,100.00
2023-03-26T06:28:49.124Z,100.00
2023-03-26T06:31:17.322Z,100.00
2023-03-26T06:33:44.064Z,100.00
2023-03-26T06:36:12.862Z,100.00
2023-03-26T06:38:41.990Z,100.00
2023-03-26T06:41:08.774Z,100.00
2023-03-26T06:43:36.343Z,100.00
2023-03-26T06:46:04.354Z,100.00
2023-03-26T06:48:32.001Z,100.00
2023-03-26T06:50:59.071Z,100.00
2023-03-26T06:53:26.685Z,100.00
2023-03-26T06:55:54.517Z,100.00
2023-03-26T06:58:22.374Z,100.00
2023-03-26T07:00:54.283Z,100.00
2023-03-26T07:03:25.469Z,100.00
2023-03-26T07:05:52.616Z,100.00
2023-03-26T07:08:20.179Z,100.00
2023-03-26T07:10:47.409Z,100.00
2023-03-26T07:13:14.176Z,100.00
2023-03-26T07:15:41.424Z,100.00
2023-03-26T07:18:08.982Z,100.00
2023-03-26T07:20:36.549Z,100.00
2023-03-26T07:23:04.344Z,100.00
2023-03-26T07:25:31.949Z,100.00
2023-03-26T07:28:18.150Z,100.00
2023-03-26T07:31:16.400Z,100.00
2023-03-26T07:34:04.580Z,100.00
2023-03-26T07:36:47.216Z,100.00
2023-03-26T07:39:45.558Z,100.00
2023-03-26T07:42:23.424Z,100.00
2023-03-26T07:45:02.473Z,100.00
2023-03-26T07:47:36.826Z,100.00
2023-03-26T07:50:04.985Z,100.00
2023-03-26T07:52:32.708Z,100.00
2023-03-26T07:54:59.788Z,100.00
2023-03-26T07:57:52.516Z,100.00
2023-03-26T08:00:29.809Z,100.00
2023-03-26T08:03:28.949Z,100.00
2023-03-26T08:05:59.429Z,100.00
2023-03-26T08:08:45.873Z,100.00
2023-03-26T08:11:25.332Z,100.00
2023-03-26T08:14:02.877Z,100.00
2023-03-26T08:16:48.771Z,100.00
2023-03-26T08:26:27.543Z,100.00
2023-03-26T08:29:04.078Z,100.00
2023-03-26T08:31:34.243Z,100.00
2023-03-26T08:34:02.184Z,100.00
2023-03-26T08:36:29.551Z,100.00
2023-03-26T08:38:59.799Z,100.00
2023-03-26T08:41:49.215Z,100.00
2023-03-26T08:44:41.477Z,100.00
2023-03-26T08:47:21.228Z,100.00
2023-03-26T08:50:20.621Z,100.00
2023-03-26T08:53:16.036Z,100.00
2023-03-26T08:55:55.281Z,100.00
2023-03-26T08:58:44.430Z,100.00
2023-03-26T09:01:32.093Z,100.00
2023-03-26T09:04:08.381Z,100.00
2023-03-26T09:06:53.697Z,100.00
2023-03-26T09:09:45.999Z,100.00
2023-03-26T09:12:40.883Z,100.00
2023-03-26T09:15:44.898Z,100.00
2023-03-26T09:18:33.294Z,100.00
2023-03-26T09:21:38.305Z,100.00
2023-03-26T09:24:30.424Z,100.00
2023-03-26T09:27:15.819Z,100.00
2023-03-26T09:30:07.460Z,100.00
2023-03-26T09:33:29.303Z,100.00
2023-03-26T09:36:30.269Z,100.00
2023-03-26T09:39:30.967Z,100.00
2023-03-26T09:42:09.356Z,100.00
2023-03-26T09:45:19.123Z,100.00
2023-03-26T09:48:18.888Z,100.00
2023-03-26T09:51:13.574Z,100.00
2023-03-26T09:54:00.051Z,100.00
2023-03-26T09:56:41.490Z,100.00
2023-03-26T09:59:14.842Z,100.00
2023-03-26T10:01:59.997Z,100.00
2023-03-26T10:04:40.598Z,100.00
2023-03-26T10:07:38.878Z,100.00
2023-03-26T10:10:25.434Z,100.00
2023-03-26T10:13:14.082Z,100.00
2023-03-26T10:16:08.115Z,100.00
2023-03-26T10:18:59.511Z,100.00
2023-03-26T10:21:41.705Z,100.00
2023-03-26T10:24:33.422Z,100.00
2023-03-26T10:27:11.178Z,100.00
2023-03-26T10:29:37.907Z,100.00
2023-03-26T10:32:30.461Z,100.00
2023-03-26T10:35:35.176Z,100.00
2023-03-26T10:38:18.238Z,100.00
2023-03-26T10:41:16.218Z,100.00
2023-03-26T10:44:31.763Z,100.00
2023-03-26T10:47:34.939Z,100.00
2023-03-26T10:50:27.595Z,100.00
2023-03-26T10:53:27.405Z,100.00
2023-03-26T10:56:02.908Z,100.00
2023-03-26T10:58:48.453Z,100.00
2023-03-26T11:01:36.328Z,100.00
2023-03-26T11:04:41.986Z,100.00
2023-03-26T11:07:26.414Z,100.00
2023-03-26T11:10:11.285Z,100.00
2023-03-26T11:13:07.962Z,100.00
2023-03-26T11:15:50.103Z,100.00
2023-03-26T11:18:28.277Z,100.00
2023-03-26T11:21:30.214Z,100.00
2023-03-26T11:24:14.157Z,100.00
2023-03-26T11:26:55.860Z,100.00
2023-03-26T11:29:44.644Z,100.00
2023-03-26T11:32:26.077Z,100.00
2023-03-26T11:35:03.920Z,100.00
2023-03-26T11:37:52.325Z,100.00
2023-03-26T11:40:32.706Z,100.00
2023-03-26T11:43:04.919Z,100.00
2023-03-26T11:45:37.349Z,100.00
2023-03-26T11:48:17.668Z,100.00
2023-03-26T11:50:48.166Z,100.00
2023-03-26T11:53:22.480Z,100.00
2023-03-26T11:56:22.385Z,100.00
2023-03-26T11:59:01.205Z,100.00
2023-03-26T12:01:41.098Z,100.00
2023-03-26T12:04:15.546Z,100.00
2023-03-26T12:06:51.712Z,100.00
2023-03-26T12:09:19.704Z,100.00
2023-03-26T12:11:48.078Z,100.00
2023-03-26T12:14:26.757Z,100.00
2023-03-26T12:17:31.582Z,99.79
2023-03-26T12:20:01.361Z,100.00
2023-03-26T12:22:36.130Z,99.89
2023-03-26T12:25:18.393Z,99.18
2023-03-26T12:27:49.766Z,100.00
2023-03-26T12:30:26.302Z,100.00
2023-03-26T12:33:00.879Z,100.00
2023-03-26T12:35:31.460Z,100.00
2023-03-26T12:38:33.424Z,99.53
2023-03-26T12:44:46.457Z,100.00
2023-03-26T12:44:54.771Z,97.91
2023-03-26T12:47:59.834Z,98.63
2023-03-26T12:50:14.780Z,98.93
2023-03-26T12:53:00.333Z,93.37
2023-03-26T12:55:53.131Z,92.98
2023-03-26T12:58:47.965Z,95.89
2023-03-26T13:01:33.405Z,92.67
2023-03-26T13:04:18.874Z,91.62
2023-03-26T13:07:00.978Z,92.44
2023-03-26T13:09:58.126Z,94.61
2023-03-26T13:12:50.521Z,95.73
2023-03-26T13:15:34.646Z,92.91
2023-03-26T13:18:08.551Z,95.71
2023-03-26T13:20:53.754Z,93.67
2023-03-26T13:23:46.809Z,94.82
2023-03-26T13:26:41.019Z,90.64
2023-03-26T13:29:26.317Z,88.00
2023-03-26T13:32:18.326Z,88.37
2023-03-26T13:35:07.617Z,89.65
2023-03-26T13:37:51.254Z,88.54
2023-03-26T13:40:36.476Z,89.52
2023-03-26T13:43:22.999Z,92.18
2023-03-26T13:46:01.742Z,90.46
2023-03-26T13:48:59.988Z,94.10
2023-03-26T13:51:37.488Z,95.95
2023-03-26T13:54:18.711Z,95.75
2023-03-26T13:57:33.504Z,95.42
2023-03-26T14:00:23.499Z,97.24
2023-03-26T14:02:57.979Z,96.88
2023-03-26T14:05:38.599Z,91.15
2023-03-26T14:08:41.786Z,93.43
2023-03-26T14:11:21.779Z,94.65
2023-03-26T14:14:04.169Z,94.46
2023-03-26T14:16:41.640Z,95.01
2023-03-26T14:19:30.881Z,98.01
2023-03-26T14:22:24.185Z,93.43
2023-03-26T14:24:53.785Z,91.37
2023-03-26T14:27:26.434Z,95.03
2023-03-26T14:30:27.540Z,94.61
2023-03-26T14:33:28.075Z,95.49
2023-03-26T14:36:21.573Z,97.09
2023-03-26T14:39:13.993Z,97.28
2023-03-26T14:41:52.030Z,97.25
2023-03-26T14:44:56.481Z,97.56
2023-03-26T14:47:26.741Z,99.30
2023-03-26T14:50:07.000Z,99.12
2023-03-26T14:52:37.233Z,100.00
2023-03-26T14:55:18.636Z,100.00
2023-03-26T14:58:18.132Z,100.00
2023-03-26T15:00:47.757Z,100.00
2023-03-26T15:03:15.886Z,100.00
2023-03-26T15:06:16.957Z,100.00
2023-03-26T15:09:09.130Z,100.00
2023-03-26T15:12:23.840Z,100.00
2023-03-26T15:14:51.676Z,100.00
2023-03-26T15:17:56.079Z,100.00
2023-03-26T15:20:52.402Z,100.00
2023-03-26T15:23:22.253Z,100.00
2023-03-26T15:26:09.853Z,100.00
2023-03-26T15:28:58.572Z,100.00
2023-03-26T15:31:37.060Z,100.00
2023-03-26T15:34:30.402Z,100.00
2023-03-26T15:37:35.170Z,100.00
2023-03-26T15:46:33.586Z,100.00
2023-03-26T15:49:45.038Z,100.00
2023-03-26T15:52:31.593Z,100.00
2023-03-26T15:55:20.697Z,100.00
2023-03-26T15:58:06.424Z,100.00
2023-03-26T16:00:44.334Z,100.00
2023-03-26T16:03:11.207Z,100.00
2023-03-26T16:05:38.349Z,100.00
2023-03-26T16:08:38.215Z,100.00
2023-03-26T16:11:12.647Z,100.00
2023-03-26T16:13:40.898Z,100.00
2023-03-26T16:16:24.104Z,100.00
2023-03-26T16:19:18.121Z,100.00
2023-03-26T16:21:56.139Z,100.00
2023-03-26T16:24:26.577Z,100.00
2023-03-26T16:27:12.825Z,100.00
2023-03-26T16:30:19.495Z,100.00
2023-03-26T16:32:56.296Z,100.00
2023-03-26T16:35:39.753Z,100.00
2023-03-26T16:38:18.609Z,100.00
2023-03-26T16:41:00.989Z,100.00
2023-03-26T16:43:46.170Z,100.00
2023-03-26T16:46:27.988Z,100.00
2023-03-26T16:49:02.552Z,100.00
2023-03-26T16:51:50.803Z,100.00
2023-03-26T16:54:52.441Z,100.00
2023-03-26T16:57:27.026Z,100.00
2023-03-26T17:00:18.152Z,100.00
2023-03-26T17:03:15.656Z,100.00
2023-03-26T17:05:56.470Z,100.00
2023-03-26T17:08:54.578Z,100.00
2023-03-26T17:11:38.381Z,100.00
2023-03-26T17:14:15.875Z,100.00
2023-03-26T17:16:48.433Z,100.00
2023-03-26T17:19:39.593Z,100.00
2023-03-26T17:22:24.873Z,100.00
2023-03-26T17:24:58.939Z,99.83
2023-03-26T17:27:33.955Z,97.88
2023-03-26T17:30:08.721Z,99.18
2023-03-26T17:32:56.725Z,98.86
2023-03-26T17:35:51.248Z,96.53
2023-03-26T17:38:20.033Z,93.70
2023-03-26T17:40:49.132Z,95.45
2023-03-26T17:43:51.678Z,92.64
2023-03-26T17:46:37.608Z,91.52
2023-03-26T17:49:27.164Z,89.47
2023-03-26T17:52:19.860Z,92.47
2023-03-26T17:54:50.171Z,89.31
2023-03-26T17:57:40.318Z,89.88
2023-03-26T18:00:18.414Z,90.19
2023-03-26T18:02:57.376Z,89.25
2023-03-26T18:05:31.467Z,90.33
2023-03-26T18:08:32.480Z,89.97
2023-03-26T18:11:13.605Z,91.41
2023-03-26T18:14:18.438Z,90.31
2023-03-26T18:16:51.515Z,90.57
2023-03-26T18:19:22.615Z,91.64
2023-03-26T18:21:52.043Z,91.62
2023-03-26T18:24:41.110Z,90.79
2023-03-26T18:27:19.015Z,87.97
2023-03-26T18:30:01.383Z,87.95
2023-03-26T18:32:33.660Z,89.03
2023-03-26T18:35:14.312Z,87.11
2023-03-26T18:37:44.690Z,87.27
2023-03-26T18:40:18.968Z,85.02
2023-03-26T18:42:56.607Z,85.10
2023-03-26T18:45:37.475Z,84.76
2023-03-26T18:48:11.808Z,85.36
2023-03-26T18:50:41.551Z,84.71
2023-03-26T18:53:28.534Z,84.35
2023-03-26T18:55:57.828Z,83.53
2023-03-26T18:58:26.158Z,84.01
2023-03-26T19:00:58.406Z,81.89
2023-03-26T19:03:26.820Z,83.72
2023-03-26T19:05:56.143Z,80.57
2023-03-26T19:08:25.448Z,83.53
2023-03-26T19:10:54.459Z,81.81
2023-03-26T19:13:22.322Z,80.20
2023-03-26T19:15:54.666Z,79.90
2023-03-26T19:18:28.345Z,79.94
2023-03-26T19:20:59.429Z,81.10
2023-03-26T19:23:32.677Z,80.88
2023-03-26T19:26:02.544Z,81.54
2023-03-26T19:28:37.330Z,79.72
2023-03-26T19:31:12.476Z,80.50
2023-03-26T19:33:42.113Z,79.60
2023-03-26T19:36:19.463Z,81.29
2023-03-26T19:38:52.066Z,82.49
2023-03-26T19:41:44.639Z,80.97
2023-03-26T19:44:22.586Z,82.79
2023-03-26T19:46:53.712Z,80.94
2023-03-26T19:49:28.002Z,81.31
2023-03-26T19:52:19.365Z,81.07
2023-03-26T19:54:59.713Z,81.44
2023-03-26T19:57:32.663Z,80.38
2023-03-26T20:00:00.716Z,80.82
2023-03-26T20:02:29.508Z,80.95
2023-03-26T20:04:57.118Z,78.25
2023-03-26T20:07:34.970Z,78.50
2023-03-26T20:10:05.594Z,76.51
2023-03-26T20:12:33.088Z,78.21
2023-03-26T20:15:01.592Z,76.57
2023-03-26T20:17:31.121Z,74.59
2023-03-26T20:19:59.617Z,75.25
2023-03-26T20:22:26.873Z,74.14
2023-03-26T20:24:54.743Z,76.12
2023-03-26T20:27:22.476Z,74.72
2023-03-26T20:29:49.665Z,74.07
2023-03-26T20:32:23.142Z,74.54
2023-03-26T20:34:52.726Z,75.23
2023-03-26T20:37:20.200Z,75.52
2023-03-26T20:39:47.295Z,74.72
2023-03-26T20:42:16.100Z,75.62
2023-03-26T20:44:43.536Z,76.51
2023-03-26T20:47:11.663Z,75.99
2023-03-26T20:49:41.779Z,75.77
2023-03-26T20:52:13.540Z,74.59
2023-03-26T20:54:41.980Z,74.42
2023-03-26T20:57:11.855Z,74.64
2023-03-26T20:59:38.771Z,75.32
2023-03-26T21:02:06.433Z,74.96
2023-03-26T21:04:38.627Z,75.56
2023-03-26T21:07:21.452Z,75.27
2023-03-26T21:09:49.628Z,75.59
2023-03-26T21:12:31.263Z,75.60
2023-03-26T21:14:58.973Z,75.97
2023-03-26T21:17:27.190Z,76.30
2023-03-26T21:20:00.444Z,76.31
2023-03-26T21:22:38.652Z,74.20
2023-03-26T21:25:20.630Z,74.88
2023-03-26T21:28:04.036Z,74.02
2023-03-26T21:30:31.385Z,74.25
2023-03-26T21:32:59.736Z,72.95
2023-03-26T21:35:27.344Z,74.09
2023-03-26T21:37:57.660Z,76.16
2023-03-26T21:40:25.002Z,74.92
2023-03-26T21:42:54.268Z,75.24
2023-03-26T21:45:22.465Z,76.23
2023-03-26T21:47:50.246Z,76.97
2023-03-26T21:50:21.750Z,74.83
2023-03-26T21:52:51.731Z,75.97
2023-03-26T21:55:21.968Z,76.79
2023-03-26T21:57:55.126Z,76.05
2023-03-26T22:00:33.538Z,77.18
2023-03-26T22:03:13.166Z,76.11
2023-03-26T22:05:40.621Z,76.20
2023-03-26T22:08:40.636Z,77.17
2023-03-26T22:11:09.905Z,75.90
2023-03-26T22:13:38.611Z,76.85
2023-03-26T22:16:08.825Z,77.28
2023-03-26T22:18:37.681Z,78.22
2023-03-26T22:21:06.052Z,77.73
2023-03-26T22:23:36.171Z,77.82
2023-03-26T22:26:05.154Z,78.36
2023-03-26T22:28:32.109Z,78.33
2023-03-26T22:30:59.396Z,78.91
2023-03-26T22:33:26.655Z,79.71
2023-03-26T22:35:55.866Z,79.86
2023-03-26T22:38:23.796Z,79.02
2023-03-26T22:40:58.591Z,78.44
2023-03-26T22:43:26.186Z,79.56
2023-03-26T22:45:55.030Z,78.92
2023-03-26T22:48:23.772Z,78.90
2023-03-26T22:51:05.659Z,78.34
2023-03-26T22:53:33.120Z,78.31
2023-03-26T22:56:00.922Z,78.63
2023-03-26T22:58:30.313Z,78.70
2023-03-26T23:01:08.222Z,78.32
2023-03-26T23:03:37.128Z,78.13
2023-03-26T23:06:07.951Z,79.10
2023-03-26T23:08:37.917Z,79.28
2023-03-26T23:11:09.841Z,79.72
2023-03-26T23:13:36.845Z,79.14
2023-03-26T23:16:05.166Z,78.65
2023-03-26T23:18:33.074Z,78.72
2023-03-26T23:21:00.132Z,78.03
2023-03-26T23:23:30.871Z,76.89
2023-03-26T23:26:01.365Z,77.45
2023-03-26T23:28:32.004Z,77.12
2023-03-26T23:31:02.780Z,76.94
2023-03-26T23:33:34.344Z,77.64
2023-03-26T23:36:04.224Z,77.73
2023-03-26T23:38:43.858Z,76.87
2023-03-26T23:41:15.975Z,77.49
2023-03-26T23:43:53.604Z,76.72
2023-03-26T23:46:34.563Z,76.93
2023-03-26T23:49:03.551Z,77.48
2023-03-26T23:51:31.898Z,77.16
2023-03-26T23:53:59.909Z,77.30
2023-03-26T23:56:30.334Z,77.21
2023-03-26T23:58:58.344Z,77.39
